Time;durP1;ratioP1;P1;durP2;ratioP2;P2;SDS_P1;SDS_P2;PMS_P1;PMS_P2;Temp;Humidity;BMP_temperature;BMP_pressure;BME280_temperature;BME280_humidity;BME280_pressure;Samples;Min_cycle;Max_cycle;Signal;HPM_P1;HPM_P2
2023/03/05 00:03:21;;;;;;;14.20;5.30;;;;;;;-3.29;69.49;99481.28;217500;1259;140085;-62
2023/03/05 00:08:24;;;;;;;14.00;6.30;;;;;;;-3.35;69.68;99479.45;218004;1258;141455;-62
2023/03/05 00:13:29;;;;;;;10.50;3.60;;;;;;;-3.42;69.57;99479.15;218035;1258;139596;-63
2023/03/05 00:18:32;;;;;;;11.80;5.30;;;;;;;-3.47;69.49;99474.98;217765;1258;139283;-63
2023/03/05 00:23:34;;;;;;;8.10;4.00;;;;;;;-3.53;69.52;99473.59;217315;1259;139415;-62
2023/03/05 00:28:38;;;;;;;7.60;3.90;;;;;;;-3.59;69.40;99466.63;217351;1259;140146;-62
2023/03/05 00:33:42;;;;;;;8.10;4.50;;;;;;;-3.63;69.57;99462.13;218091;1259;141446;-62
2023/03/05 00:38:45;;;;;;;14.00;4.20;;;;;;;-3.60;69.49;99459.09;218283;1259;140889;-62
2023/03/05 00:43:47;;;;;;;11.40;4.10;;;;;;;-3.57;69.60;99458.05;219280;1256;140280;-62
2023/03/05 00:48:50;;;;;;;8.90;4.10;;;;;;;-3.55;69.68;99449.89;217717;1257;139823;-62
2023/03/05 00:53:52;;;;;;;11.60;3.80;;;;;;;-3.57;69.86;99445.21;218264;1257;141424;-61
2023/03/05 00:58:55;;;;;;;8.30;4.80;;;;;;;-3.60;69.82;99439.46;218854;1260;139545;-65
2023/03/05 01:03:59;;;;;;;11.50;4.90;;;;;;;-3.63;69.73;99427.55;219317;1261;140218;-62
2023/03/05 01:09:02;;;;;;;9.40;3.80;;;;;;;-3.65;69.83;99424.17;217690;1257;140375;-62
2023/03/05 01:14:04;;;;;;;9.40;4.20;;;;;;;-3.69;69.82;99420.20;220125;1260;140157;-62
2023/03/05 01:19:07;;;;;;;6.60;4.00;;;;;;;-3.76;69.66;99410.25;220484;1257;140243;-63
2023/03/05 01:24:09;;;;;;;15.30;5.60;;;;;;;-3.80;70.03;99405.98;217937;1257;139315;-61
2023/03/05 01:29:11;;;;;;;11.40;4.40;;;;;;;-3.83;69.91;99402.41;217981;1257;139108;-61
2023/03/05 01:34:15;;;;;;;9.90;4.70;;;;;;;-3.86;69.94;99403.10;218637;1260;141648;-63
2023/03/05 01:39:18;;;;;;;9.90;3.60;;;;;;;-3.90;69.95;99396.22;218428;1260;138982;-62
2023/03/05 01:44:22;;;;;;;11.50;4.40;;;;;;;-3.96;70.05;99392.39;217894;1260;139858;-62
2023/03/05 01:49:37;;;;;;;11.80;3.80;;;;;;;-3.95;69.79;99388.14;218130;1257;140970;-63
2023/03/05 01:54:55;;;;;;;8.90;4.60;;;;;;;-3.95;69.89;99377.75;218068;1260;139542;-62
2023/03/05 02:00:04;;;;;;;16.80;5.90;;;;;;;-3.97;70.12;99371.92;218056;1260;139025;-62
2023/03/05 02:05:19;;;;;;;9.20;5.00;;;;;;;-3.99;70.15;99367.30;217849;1258;138830;-62
2023/03/05 02:10:44;;;;;;;10.90;4.10;;;;;;;-4.06;70.52;99361.90;218402;1257;139607;-64
2023/03/05 02:15:49;;;;;;;9.60;3.80;;;;;;;-4.13;70.59;99358.91;218302;1260;139425;-62
2023/03/05 02:20:55;;;;;;;11.00;4.70;;;;;;;-4.18;70.68;99353.27;219042;1258;139858;-62
2023/03/05 02:25:59;;;;;;;9.30;4.00;;;;;;;-4.24;70.77;99342.64;218701;1260;140168;-63
2023/03/05 02:31:16;;;;;;;15.30;6.20;;;;;;;-4.28;70.87;99334.42;218869;1260;139399;-61
2023/03/05 02:36:21;;;;;;;15.00;7.50;;;;;;;-4.36;70.96;99324.40;218648;1257;140961;-62
2023/03/05 02:41:24;;;;;;;13.00;5.90;;;;;;;-4.40;71.21;99317.67;218383;1260;139330;-63
2023/03/05 02:46:28;;;;;;;10.30;6.40;;;;;;;-4.42;70.93;99321.81;218805;1257;140599;-62
2023/03/05 02:51:31;;;;;;;8.30;5.50;;;;;;;-4.40;71.22;99322.00;219134;1258;140144;-64
2023/03/05 02:56:34;;;;;;;17.50;8.80;;;;;;;-4.34;71.23;99324.27;219516;1260;139380;-63
2023/03/05 03:01:36;;;;;;;16.50;7.20;;;;;;;-4.32;71.60;99326.40;219651;1257;139598;-62
2023/03/05 03:06:40;;;;;;;11.50;7.20;;;;;;;-4.31;71.33;99325.16;220380;1257;141277;-62
2023/03/05 03:11:43;;;;;;;23.40;9.50;;;;;;;-4.33;71.70;99324.95;220443;1256;140082;-65
2023/03/05 03:16:46;;;;;;;27.10;12.10;;;;;;;-4.30;71.79;99324.91;219967;1257;139895;-65
2023/03/05 03:21:49;;;;;;;29.00;14.10;;;;;;;-4.29;71.67;99319.59;220584;1257;139808;-62
2023/03/05 03:26:52;;;;;;;31.10;13.10;;;;;;;-4.22;71.88;99319.33;219360;1258;141456;-62
2023/03/05 03:31:55;;;;;;;33.10;15.40;;;;;;;-4.14;71.58;99320.84;217899;1260;139707;-62
2023/03/05 03:36:58;;;;;;;34.10;16.50;;;;;;;-4.13;71.73;99317.43;219270;1257;139903;-62
2023/03/05 03:42:00;;;;;;;35.90;16.20;;;;;;;-4.16;71.73;99312.83;217726;1258;142075;-61
2023/03/05 03:47:02;;;;;;;33.60;16.50;;;;;;;-4.19;71.99;99301.15;217870;1260;139803;-62
2023/03/05 03:52:06;;;;;;;38.50;17.70;;;;;;;-4.24;72.11;99299.44;218121;1259;140000;-63
2023/03/05 03:57:08;;;;;;;28.50;15.90;;;;;;;-4.31;72.12;99293.55;217934;1257;142112;-62
2023/03/05 04:02:10;;;;;;;27.00;14.20;;;;;;;-4.40;72.05;99286.77;217969;1257;139685;-62
2023/03/05 04:07:14;;;;;;;31.40;15.80;;;;;;;-4.46;72.61;99279.08;218432;1257;139819;-62
2023/03/05 04:12:17;;;;;;;32.00;14.30;;;;;;;-4.46;73.12;99277.27;217964;1256;140816;-62
2023/03/05 04:17:21;;;;;;;39.40;17.70;;;;;;;-4.36;73.08;99274.48;217548;1258;837406;-62
2023/03/05 04:22:23;;;;;;;27.30;14.50;;;;;;;-4.28;73.45;99266.48;217705;1258;139738;-62
2023/03/05 04:27:29;;;;;;;29.50;15.30;;;;;;;-4.24;73.66;99268.77;218456;1258;139392;-61
2023/03/05 04:32:33;;;;;;;31.30;13.00;;;;;;;-4.25;73.92;99263.98;218281;1257;140101;-62
2023/03/05 04:37:36;;;;;;;30.70;15.20;;;;;;;-4.26;73.99;99253.88;219700;1257;140602;-62
2023/03/05 04:42:40;;;;;;;25.70;12.10;;;;;;;-4.26;73.78;99249.79;219614;1257;140819;-64
2023/03/05 04:47:43;;;;;;;22.00;12.20;;;;;;;-4.25;74.21;99246.66;217799;1258;139259;-61
2023/03/05 04:52:46;;;;;;;19.30;10.70;;;;;;;-4.20;74.22;99241.24;219636;1257;139820;-63
2023/03/05 04:57:49;;;;;;;26.10;13.90;;;;;;;-4.15;74.13;99231.55;219676;1257;140611;-61
2023/03/05 05:02:52;;;;;;;32.70;14.80;;;;;;;-4.13;74.13;99220.58;220488;1257;139821;-62
2023/03/05 05:07:56;;;;;;;17.90;8.70;;;;;;;-4.13;74.07;99214.73;220493;1256;139886;-63
2023/03/05 05:13:00;;;;;;;23.10;11.30;;;;;;;-4.21;74.23;99193.83;220298;1256;139125;-63
2023/03/05 05:18:03;;;;;;;28.40;11.50;;;;;;;-4.16;74.80;99191.59;217852;1260;139906;-63
2023/03/05 05:23:06;;;;;;;23.60;11.30;;;;;;;-3.98;75.12;99192.91;219301;1256;139503;-62
2023/03/05 05:28:10;;;;;;;28.30;16.40;;;;;;;-3.83;75.46;99190.14;219653;1257;140011;-62
2023/03/05 05:33:14;;;;;;;19.30;10.40;;;;;;;-3.71;75.58;99200.41;219254;1256;150917;-62
2023/03/05 05:38:18;;;;;;;18.40;9.30;;;;;;;-3.62;75.73;99204.31;218796;1257;139542;-62
2023/03/05 05:43:20;;;;;;;22.10;10.50;;;;;;;-3.53;75.68;99210.67;218882;1256;139869;-62
2023/03/05 05:48:23;;;;;;;31.50;14.30;;;;;;;-3.44;75.79;99209.92;218758;1256;139596;-61
2023/03/05 05:53:27;;;;;;;20.20;9.90;;;;;;;-3.32;75.72;99208.48;218671;1257;140364;-61
2023/03/05 05:58:29;;;;;;;17.20;8.60;;;;;;;-3.21;75.80;99206.08;218092;1256;139993;-62
2023/03/05 06:03:32;;;;;;;435.30;160.60;;;;;;;-3.12;76.15;99199.03;217769;1257;139167;-62
2023/03/05 06:08:37;;;;;;;32.40;15.40;;;;;;;-3.03;76.12;99195.83;219140;1256;139728;-62
2023/03/05 06:13:41;;;;;;;39.40;21.80;;;;;;;-2.97;76.28;99192.26;217967;1256;139426;-61
2023/03/05 06:18:45;;;;;;;27.50;13.60;;;;;;;-2.91;76.28;99196.64;219356;1256;139302;-61
2023/03/05 06:23:49;;;;;;;25.20;12.40;;;;;;;-2.87;76.23;99186.34;219075;1256;139263;-62
2023/03/05 06:28:53;;;;;;;20.50;9.80;;;;;;;-2.83;76.33;99183.31;218394;1257;139752;-62
2023/03/05 06:34:01;;;;;;;18.40;8.60;;;;;;;-2.70;76.32;99177.60;218313;1257;139778;-61
2023/03/05 06:39:05;;;;;;;19.70;9.20;;;;;;;-2.55;76.60;99169.90;218918;1256;139566;-61
2023/03/05 06:44:09;;;;;;;15.90;9.30;;;;;;;-2.44;76.67;99164.30;218630;1257;139367;-61
2023/03/05 06:49:11;;;;;;;16.30;8.10;;;;;;;-2.33;76.69;99161.64;218270;1257;140000;-61
2023/03/05 06:54:16;;;;;;;18.30;8.60;;;;;;;-2.27;76.55;99161.83;220484;1257;139593;-61
2023/03/05 06:59:20;;;;;;;22.50;10.10;;;;;;;-2.22;76.80;99156.73;220526;1256;140869;-62
2023/03/05 07:04:23;;;;;;;12.90;7.30;;;;;;;-2.16;76.69;99153.09;220656;1256;143267;-61
2023/03/05 07:09:26;;;;;;;20.00;9.20;;;;;;;-2.08;76.57;99151.84;219421;1255;139406;-63
2023/03/05 07:14:28;;;;;;;14.90;9.00;;;;;;;-1.95;76.44;99146.92;220331;1256;140784;-63
2023/03/05 07:19:31;;;;;;;17.60;10.20;;;;;;;-1.79;76.53;99146.67;220287;1256;140772;-62
2023/03/05 07:24:34;;;;;;;15.60;7.60;;;;;;;-1.66;76.60;99141.64;218813;1257;140061;-64
2023/03/05 07:29:38;;;;;;;16.30;7.30;;;;;;;-1.55;76.61;99134.85;218731;1256;139852;-61
2023/03/05 07:34:42;;;;;;;24.10;8.40;;;;;;;-1.46;76.69;99128.38;218095;1257;249098;-63
2023/03/05 07:39:45;;;;;;;14.10;6.80;;;;;;;-1.39;76.37;99126.05;217832;1257;139651;-63
2023/03/05 07:44:49;;;;;;;15.90;6.80;;;;;;;-1.34;76.39;99122.70;218663;1256;139536;-61
2023/03/05 07:49:52;;;;;;;11.30;6.40;;;;;;;-1.22;76.19;99118.52;218193;1256;139791;-64
2023/03/05 07:54:55;;;;;;;14.60;6.70;;;;;;;-1.10;76.58;99115.52;218430;1257;142056;-64
2023/03/05 07:59:59;;;;;;;14.20;7.90;;;;;;;-1.02;76.41;99113.24;218469;1257;140247;-63
2023/03/05 08:05:03;;;;;;;12.70;6.60;;;;;;;-0.93;76.34;99107.39;218461;1257;139359;-64
2023/03/05 08:10:07;;;;;;;7.70;4.20;;;;;;;-0.86;76.09;99107.67;217552;1257;140082;-63
2023/03/05 08:15:11;;;;;;;11.20;7.00;;;;;;;-0.76;76.11;99100.75;218204;1257;140370;-63
2023/03/05 08:20:18;;;;;;;8.70;4.00;;;;;;;-0.62;76.19;99098.14;217361;1257;140415;-62
2023/03/05 08:25:21;;;;;;;25.30;8.10;;;;;;;-0.53;76.22;99103.73;218547;1260;141382;-63
2023/03/05 08:30:26;;;;;;;15.60;6.40;;;;;;;-0.54;76.32;99098.16;219022;1259;139654;-63
2023/03/05 08:35:29;;;;;;;7.60;5.40;;;;;;;-0.52;76.44;99093.61;218106;1256;140091;-62
2023/03/05 08:40:33;;;;;;;10.90;5.30;;;;;;;-0.45;76.55;99089.33;218560;1256;139523;-63
2023/03/05 08:45:38;;;;;;;6.20;3.70;;;;;;;-0.40;76.74;99081.20;217211;1258;139897;-64
2023/03/05 08:50:41;;;;;;;8.60;4.70;;;;;;;-0.40;76.88;99072.52;220315;1256;139749;-63
2023/03/05 08:55:53;;;;;;;14.90;5.40;;;;;;;-0.42;76.77;99065.20;220379;1256;139459;-62
2023/03/05 09:00:56;;;;;;;8.20;5.30;;;;;;;-0.27;76.92;99064.86;217468;1257;140303;-65
2023/03/05 09:06:05;;;;;;;8.70;5.70;;;;;;;-0.12;77.00;99058.73;217471;1256;141122;-67
2023/03/05 09:11:11;;;;;;;15.40;7.20;;;;;;;-0.03;76.91;99055.84;220059;1257;139768;-66
2023/03/05 09:16:17;;;;;;;6.90;4.60;;;;;;;0.11;77.27;99051.80;218177;1257;140646;-65
2023/03/05 09:21:20;;;;;;;8.20;5.10;;;;;;;0.22;77.17;99050.85;220103;1258;139112;-65
2023/03/05 09:26:25;;;;;;;19.80;6.70;;;;;;;0.33;76.69;99048.36;219019;1256;138672;-66
2023/03/05 09:31:29;;;;;;;8.50;5.20;;;;;;;0.46;77.04;99042.09;217942;1256;139532;-64
2023/03/05 09:36:36;;;;;;;10.30;5.00;;;;;;;0.58;76.72;99042.38;218774;1256;140131;-62
2023/03/05 09:41:51;;;;;;;8.40;4.30;;;;;;;0.68;77.13;99037.94;217999;1256;139094;-61
2023/03/05 09:47:04;;;;;;;7.70;4.60;;;;;;;0.76;76.67;99038.14;217613;1259;138956;-61
2023/03/05 09:52:17;;;;;;;7.80;5.20;;;;;;;0.79;76.83;99031.38;218067;1256;139059;-62
2023/03/05 09:57:35;;;;;;;11.40;4.40;;;;;;;0.93;76.95;99025.39;219070;1256;140170;-62
2023/03/05 10:02:49;;;;;;;7.10;5.40;;;;;;;1.06;77.04;99014.32;217382;1260;140107;-62
2023/03/05 10:08:03;;;;;;;8.40;5.10;;;;;;;1.13;76.91;99010.16;218400;1257;139443;-65
2023/03/05 10:13:31;;;;;;;10.50;6.30;;;;;;;1.17;77.39;99007.14;218306;1256;139248;-62
2023/03/05 10:19:17;;;;;;;9.70;5.40;;;;;;;1.28;77.14;98999.34;218239;1260;139448;-62
2023/03/05 10:24:50;;;;;;;8.70;5.30;;;;;;;1.24;76.64;98990.84;218584;1257;140269;-62
2023/03/05 10:30:08;;;;;;;10.10;8.20;;;;;;;1.23;76.92;98979.69;217956;1260;140023;-64
2023/03/05 10:35:33;;;;;;;7.90;5.60;;;;;;;1.18;77.05;98981.52;217583;1256;138939;-63
2023/03/05 10:40:47;;;;;;;12.40;7.60;;;;;;;1.11;76.74;98977.48;218606;1256;140527;-63
2023/03/05 10:45:54;;;;;;;12.70;7.60;;;;;;;1.09;77.23;98973.92;218138;1259;139354;-63
2023/03/05 10:51:28;;;;;;;11.90;8.50;;;;;;;1.11;77.37;98963.64;219135;1256;139462;-62
2023/03/05 10:56:31;;;;;;;11.00;9.00;;;;;;;1.12;77.28;98960.65;217505;1257;139791;-62
2023/03/05 11:01:36;;;;;;;12.80;9.90;;;;;;;1.12;77.47;98957.91;218196;1256;140166;-62
2023/03/05 11:06:41;;;;;;;12.30;8.40;;;;;;;1.28;77.28;98953.59;219886;1256;141183;-62
2023/03/05 11:12:00;;;;;;;10.10;7.10;;;;;;;1.40;77.32;98949.13;220324;1256;139858;-62
2023/03/05 11:17:26;;;;;;;9.50;6.20;;;;;;;1.46;76.77;98947.27;220459;1256;142716;-62
2023/03/05 11:22:34;;;;;;;11.10;8.00;;;;;;;1.59;76.63;98939.66;220417;1256;140627;-64
2023/03/05 11:27:55;;;;;;;;;;;;;;;1.52;76.56;98937.23;218570;1257;139785;-64
2023/03/05 11:33:08;;;;;;;10.70;8.70;;;;;;;1.35;76.35;98941.48;219614;1256;137166;-64
2023/03/05 11:38:23;;;;;;;11.30;9.50;;;;;;;1.38;76.81;98936.08;218279;1259;139678;-62
2023/03/05 11:43:36;;;;;;;12.30;8.70;;;;;;;1.52;76.81;98931.64;217901;1256;139519;-62
2023/03/05 11:48:42;;;;;;;13.60;10.50;;;;;;;1.57;76.80;98927.65;218567;1256;140166;-65
2023/03/05 11:53:50;;;;;;;13.80;9.50;;;;;;;1.57;76.52;98925.95;217606;1257;139279;-66
2023/03/05 11:59:13;;;;;;;14.40;10.40;;;;;;;1.65;76.74;98923.98;219131;1256;140456;-65
2023/03/05 12:04:19;;;;;;;12.60;8.20;;;;;;;1.72;76.72;98920.36;218536;1256;139615;-64
2023/03/05 12:09:48;;;;;;;11.50;8.30;;;;;;;1.74;76.90;98916.00;217782;1256;138754;-65
2023/03/05 12:15:16;;;;;;;7.20;5.80;;;;;;;1.83;76.74;98910.45;218142;1256;140747;-64
2023/03/05 12:20:30;;;;;;;12.10;8.10;;;;;;;1.88;76.22;98908.86;217931;1259;139045;-65
2023/03/05 12:25:45;;;;;;;8.10;6.10;;;;;;;1.94;76.84;98904.44;218501;1256;139740;-68
2023/03/05 12:30:49;;;;;;;9.60;7.00;;;;;;;1.99;76.28;98901.17;217685;1256;139075;-68
2023/03/05 12:36:21;;;;;;;18.00;7.40;;;;;;;1.99;76.39;98897.30;218060;1256;248317;-68
2023/03/05 12:41:33;;;;;;;12.60;8.60;;;;;;;1.93;76.49;98897.77;217394;1256;140334;-66
2023/03/05 12:47:25;;;;;;;8.20;6.50;;;;;;;1.78;76.49;98895.56;219436;1257;140460;-68
2023/03/05 12:52:31;;;;;;;10.30;5.10;;;;;;;1.61;76.23;98895.30;217987;1255;139242;-68
2023/03/05 12:57:36;;;;;;;12.70;8.70;;;;;;;1.49;76.55;98889.66;219645;1257;139921;-67
2023/03/05 13:02:44;;;;;;;9.70;6.80;;;;;;;1.45;76.61;98892.48;218555;1256;139644;-65
2023/03/05 13:07:49;;;;;;;22.20;8.40;;;;;;;1.39;76.84;98895.52;218821;1260;138939;-66
2023/03/05 13:12:56;;;;;;;15.50;8.00;;;;;;;1.41;76.99;98896.13;219243;1257;139674;-64
2023/03/05 13:18:07;;;;;;;11.10;7.30;;;;;;;1.48;76.95;98897.66;219339;1256;140297;-65
2023/03/05 13:23:25;;;;;;;12.50;7.60;;;;;;;1.44;76.78;98898.16;218233;1257;139065;-65
2023/03/05 13:28:28;;;;;;;12.60;6.40;;;;;;;1.40;76.74;98900.16;218629;1259;141439;-64
2023/03/05 13:33:34;;;;;;;11.90;5.40;;;;;;;1.35;76.89;98901.88;218536;1256;139993;-66
2023/03/05 13:38:43;;;;;;;13.30;5.60;;;;;;;1.41;76.69;98896.48;217366;1257;140253;-67
2023/03/05 13:43:56;;;;;;;17.10;9.10;;;;;;;1.44;76.95;98894.20;217226;1257;139421;-64
2023/03/05 13:49:23;;;;;;;24.80;12.90;;;;;;;1.39;77.09;98893.73;217576;1256;139281;-64
2023/03/05 13:54:29;;;;;;;25.20;20.60;;;;;;;1.47;77.08;98893.61;217943;1257;140341;-63
2023/03/05 13:59:37;;;;;;;12.60;7.60;;;;;;;1.41;76.87;98891.52;218856;1257;140204;-63
2023/03/05 14:04:45;;;;;;;14.50;10.50;;;;;;;1.39;77.03;98891.27;217598;1257;139279;-62
2023/03/05 14:09:50;;;;;;;14.10;5.30;;;;;;;1.48;77.11;98890.98;218089;1257;139951;-64
2023/03/05 14:14:56;;;;;;;16.70;6.70;;;;;;;1.69;77.25;98892.34;217587;1257;139664;-62
2023/03/05 14:20:17;;;;;;;18.40;8.30;;;;;;;1.76;76.95;98887.35;218390;1256;140433;-63
2023/03/05 14:25:39;;;;;;;10.80;7.50;;;;;;;1.69;76.73;98885.63;218151;1260;140268;-65
2023/03/05 14:30:46;;;;;;;17.30;7.50;;;;;;;1.61;76.68;98882.69;218361;1257;139505;-61
2023/03/05 14:35:50;;;;;;;14.10;8.30;;;;;;;1.60;76.59;98882.56;218086;1257;140789;-63
2023/03/05 14:40:54;;;;;;;20.80;8.70;;;;;;;1.51;76.39;98885.21;218008;1257;139399;-63
2023/03/05 14:46:03;;;;;;;10.60;7.40;;;;;;;1.28;76.26;98888.52;217939;1259;138926;-65
2023/03/05 14:51:14;;;;;;;10.80;7.90;;;;;;;1.14;77.00;98902.07;217350;1256;139829;-65
2023/03/05 14:56:27;;;;;;;17.00;9.20;;;;;;;1.04;76.62;98903.27;218390;1256;139429;-64
2023/03/05 15:01:30;;;;;;;13.80;10.30;;;;;;;0.96;76.68;98899.21;218378;1259;142962;-64
2023/03/05 15:06:38;;;;;;;15.90;10.10;;;;;;;0.92;76.60;98899.20;219302;1256;140310;-64
2023/03/05 15:11:43;;;;;;;18.30;9.30;;;;;;;0.88;76.25;98902.73;219756;1255;140352;-65
2023/03/05 15:16:46;;;;;;;16.70;11.90;;;;;;;0.84;76.23;98902.35;220327;1256;139770;-69
2023/03/05 15:21:50;;;;;;;17.70;11.10;;;;;;;0.83;76.30;98900.48;219635;1257;139930;-67
2023/03/05 15:26:53;;;;;;;15.50;11.70;;;;;;;0.80;76.29;98893.20;219546;1258;141550;-65
2023/03/05 15:32:04;;;;;;;18.00;10.90;;;;;;;0.80;76.12;98891.83;218024;1257;139797;-63
2023/03/05 15:37:15;;;;;;;22.20;14.10;;;;;;;0.73;75.68;98896.86;217417;1257;140628;-63
2023/03/05 15:42:21;;;;;;;23.40;15.40;;;;;;;0.61;76.28;98894.69;219368;1257;139831;-62
2023/03/05 15:47:28;;;;;;;25.40;15.30;;;;;;;0.51;76.29;98890.30;218231;1256;139805;-67
2023/03/05 15:52:37;;;;;;;19.00;13.10;;;;;;;0.36;76.06;98891.16;219688;1256;139320;-63
2023/03/05 15:57:49;;;;;;;21.20;13.60;;;;;;;0.25;76.09;98891.91;219098;1260;140970;-67
2023/03/05 16:02:54;;;;;;;21.60;12.70;;;;;;;0.13;75.95;98896.16;217940;1256;139998;-69
2023/03/05 16:08:02;;;;;;;16.80;12.60;;;;;;;0.07;76.25;98896.50;218522;1256;140138;-68
2023/03/05 16:13:15;;;;;;;18.10;11.70;;;;;;;-0.00;76.32;98898.17;217745;1256;140504;-67
2023/03/05 16:18:21;;;;;;;23.60;13.90;;;;;;;-0.10;76.37;98915.38;217471;1256;492919;-68
2023/03/05 16:23:23;;;;;;;17.60;11.80;;;;;;;-0.20;76.67;98917.12;219165;1256;139996;-65
2023/03/05 16:28:30;;;;;;;20.90;12.50;;;;;;;-0.35;76.57;98911.48;217621;1261;139638;-66
2023/03/05 16:33:33;;;;;;;19.10;12.70;;;;;;;-0.53;76.45;98911.67;218961;1256;141019;-63
2023/03/05 16:38:37;;;;;;;17.40;12.50;;;;;;;-0.71;76.66;98908.85;219059;1257;139610;-67
2023/03/05 16:43:43;;;;;;;17.40;13.30;;;;;;;-0.87;76.45;98916.34;219077;1256;140002;-68
2023/03/05 16:48:48;;;;;;;21.60;12.70;;;;;;;-0.99;76.48;98919.72;218936;1259;243937;-68
2023/03/05 16:53:57;;;;;;;22.60;13.60;;;;;;;-1.10;76.79;98924.06;217839;1259;140160;-64
2023/03/05 16:59:03;;;;;;;20.00;13.70;;;;;;;-1.21;76.91;98923.47;220424;1257;139464;-68
2023/03/05 17:04:07;;;;;;;22.80;15.60;;;;;;;-1.35;76.97;98925.84;219544;1256;141751;-66
2023/03/05 17:09:13;;;;;;;22.10;12.20;;;;;;;-1.52;76.81;98933.08;219559;1256;140006;-65
2023/03/05 17:14:17;;;;;;;22.20;14.30;;;;;;;-1.74;76.75;98932.05;219449;1257;152712;-68
2023/03/05 17:19:20;;;;;;;26.00;14.40;;;;;;;-1.83;77.29;98932.61;219575;1257;140368;-70
2023/03/05 17:24:24;;;;;;;34.00;16.70;;;;;;;-1.80;77.52;98932.58;220446;1256;140898;-68
2023/03/05 17:29:31;;;;;;;42.80;23.30;;;;;;;-1.77;77.52;98935.17;218868;1256;140226;-66
2023/03/05 17:34:36;;;;;;;37.30;19.40;;;;;;;-1.73;77.75;98941.21;218707;1260;141211;-62
2023/03/05 17:39:41;;;;;;;27.20;15.90;;;;;;;-1.77;77.72;98939.23;218655;1256;139276;-68
2023/03/05 17:44:45;;;;;;;32.50;20.20;;;;;;;-1.81;77.97;98941.23;218584;1256;140331;-63
2023/03/05 17:49:50;;;;;;;18.60;11.80;;;;;;;-1.87;78.05;98935.34;218359;1260;140183;-64
2023/03/05 17:54:54;;;;;;;26.30;14.20;;;;;;;-1.91;78.46;98939.99;219755;1257;140407;-66
2023/03/05 17:59:59;;;;;;;24.60;14.40;;;;;;;-1.85;78.78;98937.70;218316;1257;140860;-63
2023/03/05 18:05:04;;;;;;;23.70;13.80;;;;;;;-1.80;78.51;98941.63;217586;1257;140088;-62
2023/03/05 18:10:14;;;;;;;19.30;12.70;;;;;;;-1.84;78.61;98937.39;218393;1257;139428;-65
2023/03/05 18:15:20;;;;;;;22.90;14.00;;;;;;;-1.93;78.68;98934.50;217602;1257;139522;-65
2023/03/05 18:20:35;;;;;;;20.30;13.30;;;;;;;-2.08;78.39;98937.20;217982;1256;139239;-66
2023/03/05 18:25:41;;;;;;;16.70;12.10;;;;;;;-2.25;78.14;98939.46;217572;1257;139465;-65
2023/03/05 18:30:46;;;;;;;19.70;10.90;;;;;;;-2.40;77.94;98938.04;218304;1257;141553;-65
2023/03/05 18:35:52;;;;;;;19.60;11.60;;;;;;;-2.53;77.93;98926.61;217974;1257;140323;-65
2023/03/05 18:41:00;;;;;;;17.90;12.00;;;;;;;-2.69;78.14;98922.72;217665;1257;139633;-65
2023/03/05 18:46:06;;;;;;;17.40;11.90;;;;;;;-2.82;78.10;98921.88;218526;1257;139268;-64
2023/03/05 18:51:15;;;;;;;15.50;10.10;;;;;;;-2.98;77.94;98921.89;217529;1259;139619;-65
2023/03/05 18:56:18;;;;;;;24.60;14.20;;;;;;;-3.21;77.04;98914.70;219361;1257;140714;-63
2023/03/05 19:01:22;;;;;;;21.70;11.90;;;;;;;-3.57;76.66;98916.75;219492;1257;140211;-66
2023/03/05 19:06:25;;;;;;;17.80;10.70;;;;;;;-3.82;76.92;98920.80;220417;1256;140504;-65
2023/03/05 19:11:34;;;;;;;17.30;10.90;;;;;;;-3.95;77.09;98925.29;220350;1257;141706;-66
2023/03/05 19:16:44;;;;;;;16.20;10.40;;;;;;;-4.10;76.27;98928.41;219073;1259;140478;-65
2023/03/05 19:22:00;;;;;;;23.80;11.10;;;;;;;-4.26;76.34;98930.61;219000;1257;140490;-66
2023/03/05 19:27:13;;;;;;;20.40;10.50;;;;;;;-4.42;76.42;98931.08;218498;1257;139495;-66
2023/03/05 19:32:22;;;;;;;16.90;11.40;;;;;;;-4.50;76.97;98933.48;219323;1257;139419;-64
2023/03/05 19:37:31;;;;;;;15.30;9.40;;;;;;;-4.47;77.47;98925.20;219203;1256;139981;-65
2023/03/05 19:42:44;;;;;;;19.10;10.80;;;;;;;-4.45;77.72;98920.44;219055;1260;140043;-66
2023/03/05 19:47:51;;;;;;;18.00;11.40;;;;;;;-4.40;78.61;98913.39;218478;1260;140311;-67
2023/03/05 19:53:04;;;;;;;19.50;9.70;;;;;;;-4.35;78.30;98908.56;218546;1262;140057;-65
2023/03/05 19:58:15;;;;;;;15.40;9.50;;;;;;;-4.37;77.88;98913.98;217624;1257;140253;-66
2023/03/05 20:03:29;;;;;;;14.50;10.30;;;;;;;-4.46;77.92;98920.62;218327;1261;139222;-66
2023/03/05 20:08:40;;;;;;;12.60;8.40;;;;;;;-4.64;77.55;98918.65;218895;1260;139453;-64
2023/03/05 20:13:52;;;;;;;20.90;12.30;;;;;;;-4.86;77.60;98919.55;217781;1262;139495;-64
2023/03/05 20:19:01;;;;;;;;;;;;;;;-4.86;78.27;98914.20;218206;1260;140087;-66
2023/03/05 20:24:15;;;;;;;14.50;9.70;;;;;;;-4.78;78.70;98912.95;219477;1258;126957;-66
2023/03/05 20:29:30;;;;;;;22.90;11.90;;;;;;;-4.70;78.77;98917.40;217878;1258;139399;-66
2023/03/05 20:34:41;;;;;;;24.60;12.20;;;;;;;-4.71;78.77;98919.88;218714;1260;141321;-65
2023/03/05 20:39:51;;;;;;;23.30;15.90;;;;;;;-4.66;79.32;98914.91;217655;1258;139797;-66
2023/03/05 20:45:03;;;;;;;28.40;15.20;;;;;;;-4.63;79.59;98912.90;218421;1260;140212;-65
2023/03/05 20:50:18;;;;;;;23.90;13.50;;;;;;;-4.57;79.51;98906.31;218778;1260;140902;-66
2023/03/05 20:55:36;;;;;;;27.20;15.50;;;;;;;-4.51;79.28;98908.14;218307;1260;143516;-65
2023/03/05 21:00:41;;;;;;;32.80;17.80;;;;;;;-4.51;79.49;98902.40;219214;1259;140303;-66
2023/03/05 21:05:48;;;;;;;28.40;15.60;;;;;;;-4.54;79.36;98896.92;220309;1260;139504;-66
2023/03/05 21:11:00;;;;;;;20.90;14.20;;;;;;;-4.58;79.01;98892.40;220584;1258;141054;-66
2023/03/05 21:16:16;;;;;;;27.50;14.70;;;;;;;-4.64;79.30;98889.60;220147;1257;139973;-65
2023/03/05 21:21:23;;;;;;;22.60;14.00;;;;;;;-4.70;78.96;98885.27;218413;1257;140564;-66
2023/03/05 21:26:28;;;;;;;21.40;12.20;;;;;;;-4.71;78.77;98883.56;219891;1260;140469;-66
2023/03/05 21:31:39;;;;;;;28.90;16.80;;;;;;;-4.77;78.49;98886.86;219872;1258;140135;-66
2023/03/05 21:36:45;;;;;;;27.00;14.40;;;;;;;-4.80;79.18;98888.27;218054;1259;140002;-65
2023/03/05 21:41:53;;;;;;;22.10;14.40;;;;;;;-4.81;79.49;98881.45;219534;1258;139470;-65
2023/03/05 21:47:04;;;;;;;21.00;14.20;;;;;;;-4.82;79.40;98880.14;217758;1256;140640;-65
2023/03/05 21:52:14;;;;;;;25.80;13.50;;;;;;;-4.86;79.46;98884.34;218830;1257;141754;-66
2023/03/05 21:57:25;;;;;;;27.00;12.70;;;;;;;-4.84;79.41;98884.16;218862;1257;140069;-66
2023/03/05 22:02:33;;;;;;;35.50;16.80;;;;;;;-4.85;79.03;98884.96;217636;1260;139673;-66
2023/03/05 22:07:48;;;;;;;30.30;16.80;;;;;;;-4.95;78.89;98884.08;218423;1258;140782;-65
2023/03/05 22:13:25;;;;;;;35.60;16.60;;;;;;;-5.11;78.45;98886.90;218139;1257;140048;-65
2023/03/05 22:18:34;;;;;;;35.70;16.00;;;;;;;-5.40;77.95;98882.47;217049;1265;140005;-65
2023/03/05 22:23:46;;;;;;;26.80;16.90;;;;;;;-5.65;78.12;98883.96;217766;1260;139488;-66
2023/03/05 22:28:57;;;;;;;28.60;14.30;;;;;;;-5.84;78.22;98874.05;217635;1261;140292;-65
2023/03/05 22:34:16;;;;;;;32.00;17.60;;;;;;;-5.96;78.13;98879.76;216972;1267;223144;-66
2023/03/05 22:39:24;;;;;;;36.20;16.80;;;;;;;-5.97;78.09;98876.70;218016;1266;140407;-66
2023/03/05 22:44:30;;;;;;;38.30;18.00;;;;;;;-6.09;77.51;98876.87;217590;1266;140315;-64
2023/03/05 22:49:34;;;;;;;36.40;17.50;;;;;;;-6.23;77.65;98877.76;218284;1257;140083;-66
2023/03/05 22:54:41;;;;;;;32.90;17.40;;;;;;;-6.40;77.54;98876.60;219009;1257;142738;-65
2023/03/05 22:59:48;;;;;;;39.30;21.20;;;;;;;-6.55;77.47;98878.98;218718;1258;139979;-64
2023/03/05 23:04:59;;;;;;;;;;;;;;;-6.59;77.64;98881.23;218636;1257;140843;-65
2023/03/05 23:10:14;;;;;;;52.60;25.00;;;;;;;-6.62;77.88;98873.88;220834;1257;126211;-65
2023/03/05 23:15:22;;;;;;;47.50;21.70;;;;;;;-6.65;78.07;98877.62;220211;1257;139989;-65
2023/03/05 23:20:32;;;;;;;48.70;24.00;;;;;;;-6.69;77.87;98874.97;220548;1257;139852;-65